Time;durP1;ratioP1;P1;durP2;ratioP2;P2;SDS_P1;SDS_P2;PMS_P1;PMS_P2;Temp;Humidity;BMP_temperature;BMP_pressure;BME280_temperature;BME280_humidity;BME280_pressure;Samples;Min_cycle;Max_cycle;Signal;HPM_P1;HPM_P2
2021/08/07 00:00:35;;;;;;;10.20;9.07;;;;;;;16.27;100.00;99787.81;3585829;40;20084;-55
2021/08/07 00:03:02;;;;;;;10.40;9.30;;;;;;;16.21;100.00;99790.44;3586314;40;20048;-58
2021/08/07 00:05:29;;;;;;;9.80;8.88;;;;;;;16.22;100.00;99783.56;3587259;40;20454;-54
2021/08/07 00:07:56;;;;;;;10.43;9.18;;;;;;;16.22;100.00;99781.84;3586993;40;20058;-60
2021/08/07 00:10:24;;;;;;;10.43;9.43;;;;;;;16.02;100.00;99776.06;3587422;40;20096;-56
2021/08/07 00:12:51;;;;;;;11.73;9.45;;;;;;;16.11;100.00;99781.09;3587256;40;20063;-59
2021/08/07 00:15:18;;;;;;;10.10;9.18;;;;;;;16.15;100.00;99779.34;3587208;40;20084;-57
2021/08/07 00:17:45;;;;;;;11.60;9.60;;;;;;;16.09;100.00;99775.13;3587174;40;20055;-57
2021/08/07 00:20:13;;;;;;;10.60;9.55;;;;;;;15.99;100.00;99784.69;3587363;40;20044;-59
2021/08/07 00:22:40;;;;;;;9.75;8.82;;;;;;;16.03;100.00;99783.78;3586968;40;20442;-57
2021/08/07 00:25:07;;;;;;;10.63;9.57;;;;;;;16.04;100.00;99789.81;3587185;40;20113;-57
2021/08/07 00:27:34;;;;;;;10.70;9.27;;;;;;;16.10;100.00;99781.13;3586829;40;20093;-56
2021/08/07 00:30:03;;;;;;;12.73;10.02;;;;;;;16.05;100.00;99778.59;3586819;40;20096;-57
2021/08/07 00:32:30;;;;;;;10.75;9.75;;;;;;;15.95;100.00;99783.03;3587002;40;20096;-57
2021/08/07 00:34:57;;;;;;;10.98;9.88;;;;;;;16.07;100.00;99783.75;3587068;40;20085;-55
2021/08/07 00:37:25;;;;;;;11.85;9.38;;;;;;;16.05;100.00;99781.19;3586889;40;20068;-56
2021/08/07 00:39:52;;;;;;;11.07;9.95;;;;;;;16.01;100.00;99785.53;3586908;40;20446;-56
2021/08/07 00:42:19;;;;;;;10.75;9.65;;;;;;;16.04;100.00;99780.34;3586763;40;20081;-58
2021/08/07 00:44:46;;;;;;;11.23;10.02;;;;;;;16.01;100.00;99782.94;3587207;40;20346;-58
2021/08/07 00:47:13;;;;;;;13.00;10.63;;;;;;;15.67;100.00;99785.03;3587143;40;20080;-58
2021/08/07 00:49:42;;;;;;;11.10;9.60;;;;;;;15.84;100.00;99784.00;3586877;40;20109;-57
2021/08/07 00:52:10;;;;;;;11.65;9.38;;;;;;;15.94;100.00;99777.84;3586862;40;20372;-58
2021/08/07 00:54:39;;;;;;;9.77;8.75;;;;;;;16.03;100.00;99786.34;3587004;40;20072;-58
2021/08/07 00:57:06;;;;;;;9.43;8.52;;;;;;;15.91;100.00;99788.25;3587053;40;20100;-54
2021/08/07 00:59:33;;;;;;;9.30;8.50;;;;;;;15.95;100.00;99783.03;3587050;40;20348;-57
2021/08/07 01:02:04;;;;;;;9.50;8.05;;;;;;;15.85;100.00;99789.13;3586919;40;20088;-58
2021/08/07 01:04:46;;;;;;;9.07;8.18;;;;;;;15.81;100.00;99778.84;3586842;40;20137;-55
2021/08/07 01:07:46;;;;;;;9.48;8.57;;;;;;;15.81;100.00;99784.00;3587385;40;20403;-56
2021/08/07 01:10:24;;;;;;;9.57;8.52;;;;;;;15.88;100.00;99783.94;3586825;40;20052;-56
2021/08/07 01:13:06;;;;;;;9.43;8.52;;;;;;;15.82;100.00;99791.75;3586586;40;20328;-55
2021/08/07 01:15:37;;;;;;;11.35;8.48;;;;;;;15.86;100.00;99782.28;3586479;40;20481;-53
2021/08/07 01:18:08;;;;;;;8.85;7.95;;;;;;;15.81;100.00;99784.00;3586638;40;20364;-57
2021/08/07 01:20:38;;;;;;;9.27;8.30;;;;;;;15.71;100.00;99784.09;3586650;40;20071;-53
2021/08/07 01:23:15;;;;;;;10.07;8.18;;;;;;;15.57;100.00;99780.78;3586522;40;20053;-57
2021/08/07 01:25:54;;;;;;;;;;;;;;;15.62;100.00;99780.72;3587611;40;20216;-54
2021/08/07 01:28:22;;;;;;;10.10;7.68;;;;;;;15.66;100.00;99777.28;3586589;40;19967;-52
2021/08/07 01:30:51;;;;;;;9.20;7.88;;;;;;;15.60;100.00;99775.59;3586736;40;20088;-51
2021/08/07 01:33:19;;;;;;;11.27;8.52;;;;;;;15.54;100.00;99773.94;3586668;40;20036;-58
2021/08/07 01:35:49;;;;;;;9.82;7.90;;;;;;;15.68;100.00;99775.56;3586791;40;20089;-56
2021/08/07 01:38:17;;;;;;;9.52;8.13;;;;;;;15.64;100.00;99779.88;3586643;40;20087;-55
2021/08/07 01:40:44;;;;;;;8.25;7.32;;;;;;;15.65;100.00;99783.31;3586927;40;20477;-55
2021/08/07 01:43:11;;;;;;;8.75;7.82;;;;;;;15.59;100.00;99784.22;3586770;40;20088;-57
2021/08/07 01:45:39;;;;;;;8.98;8.05;;;;;;;15.57;100.00;99785.94;3586755;40;20307;-56
2021/08/07 01:48:14;;;;;;;9.85;7.72;;;;;;;15.55;100.00;99785.09;3586477;40;21298;-56
2021/08/07 01:50:50;;;;;;;8.52;7.55;;;;;;;15.53;100.00;99784.28;3590107;40;20052;-56
2021/08/07 01:53:23;;;;;;;10.98;8.82;;;;;;;15.51;100.00;99788.56;3590743;40;20056;-58
2021/08/07 01:55:50;;;;;;;11.57;9.23;;;;;;;15.46;100.00;99782.59;3586723;40;20088;-58
2021/08/07 01:58:24;;;;;;;11.73;9.65;;;;;;;15.41;100.00;99785.22;3586702;40;20100;-58
2021/08/07 02:00:52;;;;;;;12.35;9.07;;;;;;;15.30;100.00;99781.91;3574194;40;20680;-54
2021/08/07 02:03:21;;;;;;;11.38;10.23;;;;;;;15.34;100.00;99782.69;3585315;40;20060;-57
2021/08/07 02:05:48;;;;;;;11.63;9.20;;;;;;;15.42;100.00;99773.19;3586636;40;20045;-54
2021/08/07 02:08:16;;;;;;;11.48;9.48;;;;;;;15.41;100.00;99768.91;3586552;40;20057;-58
2021/08/07 02:10:46;;;;;;;9.88;8.60;;;;;;;15.40;100.00;99767.19;3586784;40;20418;-58
2021/08/07 02:13:16;;;;;;;10.63;8.93;;;;;;;15.38;100.00;99777.50;3586611;40;20060;-57
2021/08/07 02:15:45;;;;;;;11.30;9.63;;;;;;;15.35;100.00;99768.97;3585387;40;20339;-54
2021/08/07 02:18:18;;;;;;;10.00;8.25;;;;;;;15.29;100.00;99767.25;3586334;40;20436;-55
2021/08/07 02:20:45;;;;;;;10.68;9.55;;;;;;;15.27;100.00;99769.88;3586440;40;20056;-54
2021/08/07 02:23:15;;;;;;;15.48;9.40;;;;;;;15.13;100.00;99774.28;3586242;40;20081;-58
2021/08/07 02:25:44;;;;;;;10.02;9.02;;;;;;;15.24;100.00;99771.59;3586553;40;20081;-57
2021/08/07 02:28:11;;;;;;;10.43;9.35;;;;;;;15.18;100.00;99772.53;3586439;40;20040;-58
2021/08/07 02:30:41;;;;;;;11.00;8.73;;;;;;;15.23;100.00;99772.47;3586610;40;20559;-59
2021/08/07 02:33:09;;;;;;;10.27;8.43;;;;;;;15.27;100.00;99769.00;3586388;40;20088;-57
2021/08/07 02:35:38;;;;;;;10.50;9.07;;;;;;;15.19;100.00;99776.81;3586333;40;20085;-59
2021/08/07 02:38:05;;;;;;;11.32;9.38;;;;;;;15.19;100.00;99775.94;3586231;40;20084;-55
2021/08/07 02:40:32;;;;;;;12.48;9.25;;;;;;;15.23;100.00;99780.22;3586454;40;20072;-60
2021/08/07 02:43:00;;;;;;;11.20;8.68;;;;;;;15.23;100.00;99775.91;3586026;40;20093;-58
2021/08/07 02:45:28;;;;;;;11.52;9.27;;;;;;;15.08;100.00;99775.19;3586322;40;20060;-58
2021/08/07 02:47:55;;;;;;;10.27;8.35;;;;;;;15.06;100.00;99774.31;3586842;40;20068;-57
2021/08/07 02:50:22;;;;;;;10.43;9.32;;;;;;;15.14;100.00;99777.72;3586406;40;20088;-58
2021/08/07 02:52:49;;;;;;;9.30;8.40;;;;;;;14.99;100.00;99773.53;3586073;40;20056;-57
2021/08/07 02:55:16;;;;;;;11.95;9.43;;;;;;;15.11;100.00;99770.84;3586382;40;20100;-57
2021/08/07 02:57:43;;;;;;;10.65;8.10;;;;;;;15.17;100.00;99772.53;3586143;40;20097;-56
2021/08/07 03:00:11;;;;;;;11.55;7.68;;;;;;;15.16;100.00;99770.81;3586191;40;20059;-53
2021/08/07 03:02:39;;;;;;;8.70;7.90;;;;;;;15.13;100.00;99776.00;3585947;40;20104;-51
2021/08/07 03:05:07;;;;;;;11.10;7.88;;;;;;;15.11;100.00;99770.84;3585968;40;20317;-57
2021/08/07 03:07:34;;;;;;;13.30;8.90;;;;;;;15.14;100.00;99772.56;3586089;40;20051;-51
2021/08/07 03:10:05;;;;;;;10.23;8.50;;;;;;;15.11;100.00;99770.00;3586284;40;20080;-56
2021/08/07 03:12:32;;;;;;;9.07;8.18;;;;;;;14.99;100.00;99771.81;3586061;40;20080;-55
2021/08/07 03:14:59;;;;;;;9.35;7.43;;;;;;;14.96;100.00;99768.38;3586209;40;20108;-54
2021/08/07 03:17:26;;;;;;;8.57;7.63;;;;;;;15.15;100.00;99780.25;3586196;40;20046;-55
2021/08/07 03:19:53;;;;;;;9.30;8.30;;;;;;;15.10;100.00;99769.13;3586184;40;20056;-54
2021/08/07 03:22:20;;;;;;;12.77;7.72;;;;;;;15.20;100.00;99775.06;3586108;40;20096;-52
2021/08/07 03:24:48;;;;;;;9.25;7.50;;;;;;;15.16;100.00;99779.44;3586282;40;21306;-56
2021/08/07 03:27:15;;;;;;;8.02;7.22;;;;;;;15.07;100.00;99770.88;3586130;40;20357;-55
2021/08/07 03:29:41;;;;;;;10.70;7.72;;;;;;;15.10;100.00;99776.03;3586222;40;20089;-55
2021/08/07 03:32:09;;;;;;;7.80;7.05;;;;;;;15.16;100.00;99779.44;3585984;40;20051;-56
2021/08/07 03:34:35;;;;;;;8.23;7.43;;;;;;;15.14;100.00;99781.13;3585859;40;20426;-53
2021/08/07 03:37:03;;;;;;;7.88;7.13;;;;;;;15.15;100.00;99782.00;3585643;40;20057;-57
2021/08/07 03:39:30;;;;;;;10.23;7.28;;;;;;;15.11;100.00;99780.31;3585836;40;20092;-55
2021/08/07 03:41:57;;;;;;;10.25;7.50;;;;;;;15.10;100.00;99778.59;3586271;40;20063;-58
2021/08/07 03:44:24;;;;;;;9.10;7.57;;;;;;;15.11;100.00;99781.16;3586218;40;20045;-53
2021/08/07 03:46:51;;;;;;;8.55;7.50;;;;;;;15.18;100.00;99767.38;3585998;40;20084;-56
2021/08/07 03:49:18;;;;;;;8.60;7.57;;;;;;;15.13;100.00;99763.13;3585905;40;20082;-56
2021/08/07 03:51:45;;;;;;;7.97;7.18;;;;;;;14.83;100.00;99767.59;3585788;40;20095;-56
2021/08/07 03:54:12;;;;;;;8.57;7.35;;;;;;;15.06;100.00;99764.88;3585793;40;20080;-50
2021/08/07 03:56:39;;;;;;;10.65;7.13;;;;;;;14.94;100.00;99772.72;3585629;40;20049;-56
2021/08/07 03:59:06;;;;;;;8.57;7.22;;;;;;;14.78;100.00;99772.78;3585743;40;20096;-54
2021/08/07 04:01:33;;;;;;;10.35;7.53;;;;;;;14.75;100.00;99772.81;3585971;40;20053;-55
2021/08/07 04:04:01;;;;;;;11.48;7.88;;;;;;;14.76;100.00;99773.69;3585688;40;20148;-57
2021/08/07 04:06:28;;;;;;;10.50;8.00;;;;;;;14.71;100.00;99776.28;3585880;40;20059;-52
2021/08/07 04:08:55;;;;;;;12.45;7.78;;;;;;;14.89;100.00;99774.47;3585576;40;20096;-56
2021/08/07 04:11:22;;;;;;;12.27;7.85;;;;;;;15.08;100.00;99772.63;3585599;40;20064;-58
2021/08/07 04:13:49;;;;;;;10.18;7.45;;;;;;;14.96;100.00;99769.25;3585959;40;20683;-52
2021/08/07 04:16:16;;;;;;;9.13;6.97;;;;;;;14.89;100.00;99770.16;3585795;40;20044;-54
2021/08/07 04:18:43;;;;;;;9.68;7.30;;;;;;;15.02;100.00;99760.59;3585665;40;20049;-54
2021/08/07 04:21:10;;;;;;;11.13;7.63;;;;;;;15.28;100.00;99774.16;3585560;40;20080;-57
2021/08/07 04:23:37;;;;;;;10.50;7.95;;;;;;;15.40;100.00;99772.34;3585682;40;20093;-52
2021/08/07 04:26:04;;;;;;;8.90;7.78;;;;;;;15.39;100.00;99773.19;3585523;40;20054;-52
2021/08/07 04:28:31;;;;;;;11.80;7.72;;;;;;;15.44;100.00;99779.19;3585533;40;20051;-54
2021/08/07 04:30:58;;;;;;;9.73;7.45;;;;;;;15.52;100.00;99782.53;3586075;40;20085;-54
2021/08/07 04:33:25;;;;;;;13.35;7.63;;;;;;;15.46;100.00;99780.03;3585766;40;20041;-55
2021/08/07 04:35:52;;;;;;;9.95;7.82;;;;;;;15.43;100.00;99790.38;3585658;40;20091;-54
2021/08/07 04:38:19;;;;;;;8.15;7.35;;;;;;;15.43;100.00;99788.63;3585429;40;20052;-52
2021/08/07 04:40:48;;;;;;;8.95;7.68;;;;;;;15.48;100.00;99784.31;3585538;40;20112;-57
2021/08/07 04:43:15;;;;;;;8.88;7.85;;;;;;;15.61;100.00;99782.47;3585680;40;20045;-51
2021/08/07 04:45:42;;;;;;;8.27;7.32;;;;;;;15.63;100.00;99787.63;3585639;40;20073;-57
2021/08/07 04:48:09;;;;;;;14.48;8.68;;;;;;;15.52;100.00;99785.13;3585474;40;20057;-57
2021/08/07 04:50:36;;;;;;;9.38;7.18;;;;;;;15.62;100.00;99791.06;3586484;40;20088;-53
2021/08/07 04:53:05;;;;;;;8.40;6.85;;;;;;;15.74;100.00;99789.25;3587074;40;20056;-56
2021/08/07 04:55:36;;;;;;;8.52;7.13;;;;;;;15.50;100.00;99777.41;3587004;40;20208;-56
2021/08/07 04:58:04;;;;;;;15.00;7.85;;;;;;;15.61;100.00;99787.63;3586895;40;20056;-56
2021/08/07 05:00:31;;;;;;;10.70;7.88;;;;;;;15.58;100.00;99790.25;3586985;40;20092;-55
2021/08/07 05:02:58;;;;;;;12.30;7.63;;;;;;;15.61;100.00;99794.50;3586934;40;20048;-52
2021/08/07 05:05:29;;;;;;;10.20;7.40;;;;;;;15.94;100.00;99794.19;3587072;40;20453;-52
2021/08/07 05:07:56;;;;;;;13.35;7.35;;;;;;;16.02;100.00;99799.28;3587147;40;20072;-53
2021/08/07 05:10:23;;;;;;;10.45;7.35;;;;;;;16.05;100.00;99794.09;3586866;40;20621;-55
2021/08/07 05:12:50;;;;;;;7.53;6.80;;;;;;;16.04;100.00;99798.41;3586835;40;20104;-55
2021/08/07 05:15:17;;;;;;;8.88;7.90;;;;;;;16.13;100.00;99806.91;3586611;40;20069;-54
2021/08/07 05:17:44;;;;;;;9.07;6.93;;;;;;;16.18;100.00;99802.56;3586716;40;20057;-54
2021/08/07 05:20:12;;;;;;;8.25;6.50;;;;;;;16.15;100.00;99806.03;3586605;40;20063;-53
2021/08/07 05:22:38;;;;;;;14.20;9.07;;;;;;;16.11;100.00;99811.25;3586786;40;20408;-53
2021/08/07 05:25:06;;;;;;;8.63;7.03;;;;;;;16.28;100.00;99814.50;3587119;40;20084;-57
2021/08/07 05:27:34;;;;;;;7.85;7.05;;;;;;;16.31;100.00;99814.44;3586574;40;20406;-59
2021/08/07 05:30:01;;;;;;;9.52;7.22;;;;;;;16.45;100.00;99812.56;3573620;40;20093;-57
2021/08/07 05:32:28;;;;;;;9.82;7.50;;;;;;;16.22;100.00;99809.38;3570899;40;20086;-58
2021/08/07 05:34:55;;;;;;;9.57;7.93;;;;;;;16.38;100.00;99812.66;3571803;40;20399;-59
2021/08/07 05:37:22;;;;;;;9.02;6.50;;;;;;;16.50;100.00;99813.38;3571275;40;20077;-57
2021/08/07 05:39:49;;;;;;;7.35;6.60;;;;;;;16.55;100.00;99821.94;3574988;40;20308;-57
2021/08/07 05:42:17;;;;;;;7.15;6.45;;;;;;;16.57;100.00;99821.03;3576245;40;20053;-57
2021/08/07 05:44:44;;;;;;;7.07;6.47;;;;;;;16.62;100.00;99827.84;3576168;40;20089;-59
2021/08/07 05:47:19;;;;;;;9.77;6.22;;;;;;;16.79;100.00;99825.94;3564695;40;20413;-59
2021/08/07 05:49:52;;;;;;;7.45;6.65;;;;;;;16.69;100.00;99834.66;3574314;40;20090;-57
2021/08/07 05:52:35;;;;;;;7.97;6.18;;;;;;;16.79;100.00;99843.19;3566508;40;20077;-58
2021/08/07 05:55:05;;;;;;;7.10;5.90;;;;;;;16.74;100.00;99832.91;3575650;40;20045;-59
2021/08/07 05:57:32;;;;;;;7.90;5.70;;;;;;;16.86;100.00;99836.19;3575632;40;20403;-59
2021/08/07 05:59:59;;;;;;;7.45;5.50;;;;;;;16.90;100.00;99836.13;3574318;40;20073;-56
2021/08/07 06:02:26;;;;;;;9.15;5.25;;;;;;;17.05;100.00;99837.63;3575779;40;20029;-57
2021/08/07 06:04:54;;;;;;;6.00;5.47;;;;;;;17.15;100.00;99839.22;3575365;40;20138;-57
2021/08/07 06:07:25;;;;;;;6.22;5.18;;;;;;;17.20;100.00;99840.00;3575166;40;20056;-56
2021/08/07 06:09:54;;;;;;;8.00;5.63;;;;;;;17.35;100.00;99840.66;3576068;40;20041;-59
2021/08/07 06:12:29;;;;;;;7.70;5.05;;;;;;;17.46;100.00;99834.41;3574333;40;20060;-59
2021/08/07 06:14:57;;;;;;;7.65;5.15;;;;;;;17.55;100.00;99839.44;3575699;40;20033;-58
2021/08/07 06:17:25;;;;;;;5.03;4.60;;;;;;;17.55;100.00;99846.34;3575174;40;20073;-56
2021/08/07 06:19:55;;;;;;;5.32;4.68;;;;;;;17.79;100.00;99847.72;3575603;40;20617;-57
2021/08/07 06:22:22;;;;;;;5.18;4.40;;;;;;;17.95;100.00;99849.16;3575764;40;20074;-57
2021/08/07 06:24:49;;;;;;;4.60;4.20;;;;;;;17.83;100.00;99845.91;3575865;40;20274;-60
2021/08/07 06:27:16;;;;;;;4.28;3.80;;;;;;;17.94;100.00;99846.59;3575089;40;20071;-60
2021/08/07 06:29:43;;;;;;;4.45;4.03;;;;;;;18.01;100.00;99845.59;3575391;40;20069;-58
2021/08/07 06:32:10;;;;;;;6.22;4.13;;;;;;;17.93;100.00;99847.47;3575718;40;20089;-56
2021/08/07 06:34:37;;;;;;;3.95;3.42;;;;;;;18.15;100.00;99848.78;3575961;40;20060;-56
2021/08/07 06:37:04;;;;;;;7.00;4.00;;;;;;;18.08;100.00;99848.94;3577318;40;20075;-59
2021/08/07 06:39:32;;;;;;;3.80;3.50;;;;;;;18.43;100.00;99859.47;3577710;40;20081;-57
2021/08/07 06:42:01;;;;;;;4.47;4.03;;;;;;;18.36;100.00;99860.50;3576924;40;20137;-59
2021/08/07 06:44:28;;;;;;;3.97;3.60;;;;;;;18.66;100.00;99856.41;3577679;40;20092;-60
2021/08/07 06:46:55;;;;;;;6.22;3.58;;;;;;;18.77;100.00;99864.00;3577556;40;20100;-58
2021/08/07 06:49:22;;;;;;;4.57;3.92;;;;;;;18.85;100.00;99864.69;3577529;40;20454;-58
2021/08/07 06:51:49;;;;;;;3.50;3.10;;;;;;;18.68;100.00;99865.03;3577064;40;20088;-58
2021/08/07 06:54:16;;;;;;;4.03;3.70;;;;;;;18.87;100.00;99873.31;3567411;40;20328;-60
2021/08/07 06:56:47;;;;;;;5.50;3.45;;;;;;;19.15;100.00;99878.75;3569556;40;20052;-60
2021/08/07 06:59:15;;;;;;;4.75;3.85;;;;;;;19.17;100.00;99870.91;3577344;40;20052;-59
2021/08/07 07:01:44;;;;;;;3.65;3.30;;;;;;;19.64;100.00;99879.34;3577189;40;20060;-58
2021/08/07 07:04:11;;;;;;;4.43;3.30;;;;;;;19.68;100.00;99875.78;3577376;40;20045;-59
2021/08/07 07:06:38;;;;;;;4.13;3.30;;;;;;;19.62;99.68;99874.19;3576046;40;20056;-58
2021/08/07 07:09:05;;;;;;;4.63;3.22;;;;;;;20.10;100.00;99871.22;3576128;40;20082;-56
2021/08/07 07:11:32;;;;;;;3.90;3.17;;;;;;;19.94;97.04;99880.34;3568830;40;20400;-55
2021/08/07 07:13:59;;;;;;;3.70;3.10;;;;;;;20.13;96.09;99871.16;3566070;40;20049;-58
2021/08/07 07:16:26;;;;;;;4.28;2.90;;;;;;;20.15;94.70;99874.56;3566200;40;20054;-58
2021/08/07 07:18:53;;;;;;;4.05;3.20;;;;;;;20.38;93.62;99881.72;3565801;40;20089;-58
2021/08/07 07:21:20;;;;;;;3.95;3.00;;;;;;;20.90;90.71;99880.31;3566295;40;20105;-60
2021/08/07 07:23:47;;;;;;;7.60;3.53;;;;;;;21.95;87.55;99883.06;3566101;40;20073;-59
2021/08/07 07:26:14;;;;;;;3.60;2.70;;;;;;;22.58;84.31;99882.56;3565897;40;20123;-56
2021/08/07 07:28:42;;;;;;;5.00;2.60;;;;;;;22.08;82.51;99879.97;3569187;40;20063;-57
2021/08/07 07:31:08;;;;;;;5.60;2.95;;;;;;;21.70;85.18;99883.03;3576098;40;20444;-52
2021/08/07 07:33:35;;;;;;;4.47;2.67;;;;;;;21.76;84.25;99875.84;3575804;40;20415;-56
2021/08/07 07:36:03;;;;;;;5.43;3.15;;;;;;;21.45;86.23;99875.19;3575803;40;20048;-57
2021/08/07 07:38:31;;;;;;;2.55;2.35;;;;;;;21.31;89.04;99878.22;3576132;40;20097;-57
2021/08/07 07:40:58;;;;;;;3.65;2.83;;;;;;;21.16;91.56;99870.84;3575807;40;20045;-55
2021/08/07 07:43:26;;;;;;;5.10;2.47;;;;;;;20.96;95.42;99880.09;3575688;40;20055;-56
2021/08/07 07:45:53;;;;;;;3.70;2.78;;;;;;;20.69;91.08;99875.72;3575973;40;20097;-54
2021/08/07 07:48:20;;;;;;;4.45;2.50;;;;;;;20.70;93.36;99877.41;3575581;40;20458;-55
2021/08/07 07:50:48;;;;;;;5.22;2.80;;;;;;;20.56;93.51;99881.25;3575830;40;20069;-53
2021/08/07 07:53:15;;;;;;;3.47;2.28;;;;;;;20.96;91.19;99879.25;3575842;40;20073;-54
2021/08/07 07:55:42;;;;;;;4.88;2.92;;;;;;;20.57;89.25;99876.94;3575496;40;20053;-55
2021/08/07 07:58:10;;;;;;;3.35;2.22;;;;;;;21.08;88.05;99874.53;3575583;40;20347;-55
2021/08/07 08:00:37;;;;;;;2.35;2.15;;;;;;;21.01;87.55;99874.75;3575627;40;20081;-55
2021/08/07 08:03:05;;;;;;;4.68;2.60;;;;;;;21.22;87.36;99866.31;3575417;40;20440;-53
2021/08/07 08:05:33;;;;;;;2.35;2.08;;;;;;;21.20;89.51;99865.47;3575574;40;20057;-51
2021/08/07 08:08:00;;;;;;;5.57;2.78;;;;;;;21.23;87.55;99864.56;3575696;40;20053;-53
2021/08/07 08:10:29;;;;;;;3.22;2.38;;;;;;;21.09;86.05;99859.78;3574143;40;20300;-54
2021/08/07 08:12:56;;;;;;;3.50;2.35;;;;;;;21.08;85.27;99863.28;3571821;40;20056;-53
2021/08/07 08:15:24;;;;;;;2.65;2.10;;;;;;;21.52;85.50;99867.09;3574336;40;20096;-55
2021/08/07 08:17:51;;;;;;;5.38;2.47;;;;;;;21.63;84.33;99855.47;3574102;40;20560;-52
2021/08/07 08:20:20;;;;;;;2.90;1.92;;;;;;;21.54;84.18;99841.00;3575630;40;20037;-54
2021/08/07 08:22:49;;;;;;;2.88;2.03;;;;;;;21.93;80.56;99849.22;3575327;40;20061;-51
2021/08/07 08:25:17;;;;;;;2.70;1.65;;;;;;;21.73;84.95;99851.69;3576519;40;20088;-52
2021/08/07 08:27:44;;;;;;;4.38;2.50;;;;;;;21.88;83.75;99851.16;3576601;40;20067;-53
2021/08/07 08:30:12;;;;;;;2.75;2.45;;;;;;;22.44;81.74;99860.50;3576777;40;20041;-56
2021/08/07 08:32:39;;;;;;;3.13;1.80;;;;;;;22.74;78.68;99858.50;3576465;40;20435;-50
2021/08/07 08:35:06;;;;;;;4.13;2.13;;;;;;;22.99;77.62;99864.53;3577049;40;20092;-51
2021/08/07 08:37:33;;;;;;;5.25;1.70;;;;;;;23.25;74.06;99867.88;3576602;40;20108;-57
2021/08/07 08:40:00;;;;;;;2.25;1.85;;;;;;;23.45;71.96;99862.72;3577271;40;20430;-58
2021/08/07 08:42:28;;;;;;;2.22;1.50;;;;;;;23.46;73.72;99866.19;3576756;40;20353;-58
2021/08/07 08:44:56;;;;;;;3.13;1.52;;;;;;;24.01;69.69;99861.28;3576698;40;20044;-55
2021/08/07 08:47:25;;;;;;;4.63;2.13;;;;;;;23.90;70.76;99859.16;3577398;40;20068;-56
2021/08/07 08:49:55;;;;;;;2.70;1.67;;;;;;;23.56;71.24;99857.03;3576942;40;20114;-56
2021/08/07 08:52:25;;;;;;;1.92;1.80;;;;;;;23.01;71.68;99864.47;3576786;40;20454;-56
2021/08/07 08:54:53;;;;;;;4.97;2.08;;;;;;;23.35;73.88;99870.06;3576857;40;20145;-52
2021/08/07 08:57:22;;;;;;;2.42;1.70;;;;;;;24.07;68.81;99861.00;3576638;40;20044;-57
2021/08/07 08:59:51;;;;;;;3.42;1.63;;;;;;;23.78;69.00;99862.25;3576652;40;20045;-57
2021/08/07 09:02:19;;;;;;;4.63;1.80;;;;;;;23.65;72.81;99867.16;3576452;40;20063;-60
2021/08/07 09:04:47;;;;;;;2.88;1.92;;;;;;;23.89;70.29;99868.72;3576622;40;20092;-58
2021/08/07 09:07:15;;;;;;;2.05;1.50;;;;;;;23.70;68.85;99873.03;3567349;40;20053;-58
2021/08/07 09:09:51;;;;;;;2.70;1.70;;;;;;;23.97;68.54;99863.19;3585293;40;20052;-57
2021/08/07 09:12:19;;;;;;;5.38;1.70;;;;;;;23.99;68.97;99863.97;3586481;40;20280;-58
2021/08/07 09:14:50;;;;;;;2.08;1.23;;;;;;;23.95;66.35;99861.56;3586868;40;20061;-54
2021/08/07 09:17:21;;;;;;;2.30;1.50;;;;;;;23.92;64.74;99870.38;3586534;40;20060;-54
2021/08/07 09:19:52;;;;;;;2.60;1.63;;;;;;;24.30;64.20;99860.84;3586514;40;20056;-53
2021/08/07 09:22:33;;;;;;;2.42;1.20;;;;;;;24.78;63.67;99859.59;3586497;40;20095;-54
2021/08/07 09:25:09;;;;;;;3.78;1.50;;;;;;;24.97;62.55;99871.84;3586475;40;20045;-54
2021/08/07 09:27:42;;;;;;;3.90;1.70;;;;;;;24.75;62.42;99866.75;3586409;40;20051;-54
2021/08/07 09:30:21;;;;;;;2.67;1.27;;;;;;;24.75;63.84;99869.38;3586233;40;20384;-56
2021/08/07 09:32:55;;;;;;;1.63;1.13;;;;;;;24.53;61.45;99865.09;3586673;40;20486;-49
2021/08/07 09:35:31;;;;;;;2.13;1.30;;;;;;;24.73;59.74;99871.19;3586247;40;20056;-51
2021/08/07 09:38:24;;;;;;;1.50;1.00;;;;;;;24.90;59.06;99864.25;3586625;40;20439;-53
2021/08/07 09:41:07;;;;;;;1.30;1.20;;;;;;;25.15;57.11;99860.53;3586345;40;20133;-55
2021/08/07 09:43:36;;;;;;;1.08;1.00;;;;;;;25.20;59.57;99863.78;3574058;40;20049;-50
2021/08/07 09:46:11;;;;;;;1.83;1.02;;;;;;;25.05;56.94;99867.06;3565973;40;20049;-58
2021/08/07 09:48:52;;;;;;;0.90;0.90;;;;;;;25.23;55.34;99860.13;3566185;40;20312;-56
2021/08/07 09:51:24;;;;;;;1.58;1.10;;;;;;;25.30;56.85;99859.78;3573998;40;20041;-54
2021/08/07 09:54:16;;;;;;;6.57;1.15;;;;;;;25.09;58.39;99847.69;3575656;40;20299;-52
2021/08/07 09:56:57;;;;;;;1.52;1.10;;;;;;;25.80;58.16;99843.34;3576449;40;20532;-49
2021/08/07 09:59:29;;;;;;;1.67;1.05;;;;;;;26.02;55.45;99845.72;3576622;40;20052;-52
2021/08/07 10:02:26;;;;;;;1.90;1.17;;;;;;;26.07;53.33;99838.47;3575184;40;20298;-51
2021/08/07 10:04:56;;;;;;;;;;;;;;;26.35;52.82;99850.13;3575850;40;20041;-50
2021/08/07 10:07:25;;;;;;;2.03;1.25;;;;;;;26.21;54.51;99844.75;3575194;40;19992;-54
2021/08/07 10:09:55;;;;;;;1.20;1.10;;;;;;;28.67;47.51;99851.69;3575331;40;20084;-52
2021/08/07 10:12:24;;;;;;;1.98;1.02;;;;;;;30.50;40.31;99851.84;3575040;40;20401;-53
2021/08/07 10:14:51;;;;;;;1.52;0.88;;;;;;;30.81;38.96;99855.81;3575363;40;20112;-51
2021/08/07 10:17:23;;;;;;;0.77;0.77;;;;;;;32.38;37.89;99851.13;3575770;40;20180;-50
2021/08/07 10:19:51;;;;;;;1.65;1.00;;;;;;;31.08;37.75;99850.34;3576006;40;20045;-47
2021/08/07 10:22:19;;;;;;;1.67;1.08;;;;;;;34.30;33.29;99861.91;3576058;40;20056;-50
2021/08/07 10:24:48;;;;;;;2.25;1.05;;;;;;;34.98;30.50;99848.84;3576265;40;20052;-53
2021/08/07 10:27:18;;;;;;;2.35;1.15;;;;;;;33.55;34.32;99839.03;3576405;40;20362;-47
2021/08/07 10:29:51;;;;;;;1.35;1.00;;;;;;;35.79;30.03;99844.09;3576592;40;20057;-51
2021/08/07 10:32:21;;;;;;;1.10;1.00;;;;;;;34.83;33.12;99841.22;3576074;40;20399;-48
2021/08/07 10:34:53;;;;;;;3.15;1.10;;;;;;;33.78;32.08;99837.94;3576291;40;20356;-52
2021/08/07 10:37:22;;;;;;;1.35;1.10;;;;;;;33.67;33.26;99840.69;3576106;40;20057;-51
2021/08/07 10:39:49;;;;;;;1.48;1.38;;;;;;;35.75;28.72;99840.88;3572931;40;20323;-49
2021/08/07 10:42:18;;;;;;;2.05;1.00;;;;;;;35.87;27.46;99842.41;3569344;40;20056;-47
2021/08/07 10:44:46;;;;;;;2.20;2.10;;;;;;;34.79;29.30;99841.66;3571575;40;20342;-51
2021/08/07 10:47:33;;;;;;;2.35;2.25;;;;;;;33.87;30.60;99836.31;3570657;40;20045;-50
2021/08/07 10:50:28;;;;;;;0.90;0.90;;;;;;;30.35;37.00;99821.22;3570698;40;20334;-53
2021/08/07 10:53:26;;;;;;;1.02;1.02;;;;;;;30.16;38.41;99817.22;3575446;40;20081;-49
2021/08/07 10:55:56;;;;;;;1.33;0.80;;;;;;;33.08;34.21;99819.94;3566850;40;20060;-49
2021/08/07 10:58:45;;;;;;;1.17;0.80;;;;;;;32.88;36.19;99817.06;3569603;40;20142;-56
2021/08/07 11:01:25;;;;;;;2.08;1.02;;;;;;;32.58;32.93;99817.72;3572966;40;20434;-58
2021/08/07 11:04:07;;;;;;;2.28;0.90;;;;;;;31.54;36.17;99811.72;3572364;40;20154;-54
2021/08/07 11:06:39;;;;;;;1.00;0.90;;;;;;;30.53;36.93;99809.34;3571630;40;20044;-57
2021/08/07 11:09:32;;;;;;;1.52;1.13;;;;;;;32.69;32.41;99814.22;3570370;40;20149;-55
2021/08/07 11:12:12;;;;;;;1.58;1.10;;;;;;;35.40;29.02;99818.31;3574811;40;20049;-53
2021/08/07 11:14:40;;;;;;;1.92;1.10;;;;;;;35.43;30.79;99814.53;3571549;40;20045;-55
2021/08/07 11:17:07;;;;;;;1.10;0.95;;;;;;;35.20;29.33;99814.81;3570889;40;20105;-54
2021/08/07 11:20:04;;;;;;;1.65;0.90;;;;;;;34.27;29.64;99816.97;3570116;40;20412;-55
2021/08/07 11:22:35;;;;;;;1.10;1.00;;;;;;;31.54;33.89;99803.78;3575542;40;20037;-57
2021/08/07 11:25:17;;;;;;;2.25;1.00;;;;;;;30.80;36.34;99806.56;3575234;40;20037;-51
2021/08/07 11:27:45;;;;;;;1.23;0.80;;;;;;;32.03;34.21;99827.38;3575023;40;20029;-55
2021/08/07 11:30:15;;;;;;;0.68;0.68;;;;;;;31.96;34.06;99817.34;3575714;40;20116;-54
2021/08/07 11:33:04;;;;;;;0.82;0.82;;;;;;;32.58;32.54;99816.88;3575595;40;20057;-49
2021/08/07 11:35:37;;;;;;;1.13;0.70;;;;;;;32.83;33.02;99824.56;3575474;40;20338;-53
2021/08/07 11:38:20;;;;;;;2.17;1.00;;;;;;;33.02;34.00;99817.78;3575532;40;20412;-52